Time;durP1;ratioP1;P1;durP2;ratioP2;P2;SDS_P1;SDS_P2;PMS_P1;PMS_P2;Temp;Humidity;BMP_temperature;BMP_pressure;BME280_temperature;BME280_humidity;BME280_pressure;Samples;Min_cycle;Max_cycle;Signal;HPM_P1;HPM_P2
2021/08/29 00:00:23;;;;;;;2.85;1.30;;;28.60;99.90;;;;;;4172830;28;20048;-65
2021/08/29 00:02:28;;;;;;;3.50;1.35;;;28.60;99.90;;;;;;4174332;28;20040;-65
2021/08/29 00:04:32;;;;;;;3.92;1.45;;;28.60;99.90;;;;;;4146254;28;20175;-65
2021/08/29 00:06:37;;;;;;;2.03;1.17;;;28.60;99.90;;;;;;4141956;28;20425;-65
2021/08/29 00:08:42;;;;;;;2.83;1.48;;;28.60;99.90;;;;;;4156659;28;20135;-65
2021/08/29 00:10:46;;;;;;;2.30;1.27;;;28.70;99.90;;;;;;4169977;28;20076;-65
2021/08/29 00:12:51;;;;;;;3.53;1.30;;;28.70;99.90;;;;;;4165330;28;20136;-65
2021/08/29 00:14:55;;;;;;;3.33;1.35;;;28.70;99.90;;;;;;4168116;28;20053;-65
2021/08/29 00:17:00;;;;;;;1.73;0.98;;;28.80;99.90;;;;;;4156187;28;20526;-65
2021/08/29 00:19:05;;;;;;;4.25;1.23;;;28.80;99.90;;;;;;4158705;28;20061;-65
2021/08/29 00:21:09;;;;;;;2.28;1.10;;;28.90;99.90;;;;;;4115719;28;20058;-65
2021/08/29 00:23:14;;;;;;;1.52;0.90;;;29.00;99.90;;;;;;4122373;28;20428;-65
2021/08/29 00:25:19;;;;;;;2.55;1.10;;;29.00;99.90;;;;;;4139970;28;20057;-65
2021/08/29 00:27:23;;;;;;;2.67;1.08;;;29.10;99.90;;;;;;4156259;28;20500;-66
2021/08/29 00:29:28;;;;;;;1.83;0.95;;;29.10;99.90;;;;;;4158815;28;20459;-65
2021/08/29 00:31:32;;;;;;;1.60;1.13;;;29.20;99.90;;;;;;4149472;28;20543;-66
2021/08/29 00:33:36;;;;;;;3.00;1.10;;;29.10;99.90;;;;;;4155004;28;20450;-66
2021/08/29 00:35:41;;;;;;;2.55;1.23;;;29.10;99.90;;;;;;4140851;28;20421;-66
2021/08/29 00:37:46;;;;;;;3.17;1.45;;;29.10;99.90;;;;;;4157711;28;20514;-66
2021/08/29 00:39:50;;;;;;;3.72;1.63;;;29.20;99.90;;;;;;4158486;28;20120;-65
2021/08/29 00:41:54;;;;;;;3.97;1.60;;;29.30;99.90;;;;;;4164783;28;20083;-65
2021/08/29 00:43:59;;;;;;;2.72;1.65;;;29.30;99.90;;;;;;4148512;28;20140;-66
2021/08/29 00:46:03;;;;;;;2.22;1.30;;;29.30;99.90;;;;;;4144075;28;20046;-65
2021/08/29 00:48:12;;;;;;;2.45;1.10;;;29.40;99.90;;;;;;4176411;28;20124;-66
2021/08/29 00:50:17;;;;;;;2.80;1.38;;;29.30;99.90;;;;;;4143985;28;20143;-66
2021/08/29 00:52:38;;;;;;;2.00;1.00;;;29.30;99.90;;;;;;4136314;28;20050;-66
2021/08/29 00:54:55;;;;;;;3.53;1.20;;;29.40;99.90;;;;;;4159002;28;20577;-66
2021/08/29 00:57:11;;;;;;;2.35;1.13;;;29.30;99.90;;;;;;4142897;28;20080;-66
2021/08/29 00:59:24;;;;;;;2.70;1.42;;;29.30;99.90;;;;;;4142959;28;20480;-66
2021/08/29 01:01:45;;;;;;;1.30;0.93;;;29.20;99.90;;;;;;4142832;28;20050;-65
2021/08/29 01:03:54;;;;;;;3.72;0.85;;;29.10;99.90;;;;;;4145458;28;20042;-66
2021/08/29 01:06:24;;;;;;;2.97;1.00;;;29.10;99.90;;;;;;4152434;28;20041;-65
2021/08/29 01:08:51;;;;;;;1.30;0.73;;;29.20;99.90;;;;;;4159672;28;20488;-66
2021/08/29 01:11:17;;;;;;;2.70;0.93;;;29.30;99.90;;;;;;4159269;28;20501;-66
2021/08/29 01:13:33;;;;;;;1.30;0.95;;;29.40;99.90;;;;;;4136135;28;20073;-66
2021/08/29 01:15:43;;;;;;;1.23;0.80;;;29.40;99.90;;;;;;4141844;28;20145;-66
2021/08/29 01:17:52;;;;;;;1.53;0.97;;;29.50;99.90;;;;;;4124522;28;20046;-66
2021/08/29 01:20:17;;;;;;;2.03;0.82;;;29.60;99.90;;;;;;4144742;28;20049;-66
2021/08/29 01:22:23;;;;;;;2.08;1.00;;;29.60;99.90;;;;;;4159484;28;20050;-66
2021/08/29 01:24:31;;;;;;;2.60;0.73;;;29.70;99.90;;;;;;4158444;28;20420;-66
2021/08/29 01:27:15;;;;;;;2.20;0.70;;;29.90;99.90;;;;;;4158536;28;20513;-66
2021/08/29 01:29:24;;;;;;;1.05;0.90;;;29.90;99.90;;;;;;4157729;28;20087;-66
2021/08/29 01:31:32;;;;;;;4.38;1.00;;;29.90;99.90;;;;;;4143229;28;20096;-66
2021/08/29 01:33:36;;;;;;;1.63;0.82;;;29.70;99.90;;;;;;4157913;28;20103;-68
2021/08/29 01:35:47;;;;;;;1.70;1.13;;;29.90;99.90;;;;;;4159338;28;20053;-65
2021/08/29 01:37:52;;;;;;;7.68;1.55;;;30.10;99.90;;;;;;4159768;28;20633;-66
2021/08/29 01:40:01;;;;;;;2.00;1.13;;;30.10;99.90;;;;;;4168058;28;20052;-66
2021/08/29 01:42:09;;;;;;;1.80;0.95;;;30.10;99.90;;;;;;4123819;28;20093;-65
2021/08/29 01:44:13;;;;;;;2.80;1.00;;;30.00;99.90;;;;;;4159931;28;20420;-65
2021/08/29 01:46:20;;;;;;;3.80;1.20;;;30.10;99.90;;;;;;4163263;28;20072;-65
2021/08/29 01:48:34;;;;;;;1.88;0.93;;;30.30;99.70;;;;;;4160740;28;20057;-66
2021/08/29 01:50:43;;;;;;;3.63;1.30;;;30.40;99.50;;;;;;4158403;28;20092;-65
2021/08/29 01:53:02;;;;;;;3.72;0.98;;;30.40;99.90;;;;;;4157333;28;20077;-65
2021/08/29 01:55:25;;;;;;;9.93;1.58;;;30.40;99.60;;;;;;4144277;28;20631;-65
2021/08/29 01:57:40;;;;;;;2.60;1.20;;;30.50;99.30;;;;;;4160594;28;20327;-65
2021/08/29 01:59:52;;;;;;;2.00;1.15;;;30.50;99.40;;;;;;4161993;28;20049;-66
2021/08/29 02:01:56;;;;;;;2.88;1.00;;;30.60;99.10;;;;;;4159579;28;20045;-66
2021/08/29 02:04:03;;;;;;;3.08;0.90;;;30.80;98.40;;;;;;4158883;28;20049;-65
2021/08/29 02:06:24;;;;;;;2.42;1.25;;;30.80;98.40;;;;;;4158836;28;20084;-65
2021/08/29 02:08:29;;;;;;;7.85;1.40;;;30.80;98.40;;;;;;4191291;28;20055;-65
2021/08/29 02:10:34;;;;;;;4.70;1.20;;;30.90;98.10;;;;;;4160497;28;20572;-65
2021/08/29 02:13:03;;;;;;;4.88;1.10;;;30.90;98.00;;;;;;4161508;28;20059;-65
2021/08/29 02:15:27;;;;;;;1.38;1.02;;;30.90;97.90;;;;;;4162202;28;20389;-64
2021/08/29 02:17:31;;;;;;;1.70;0.93;;;30.90;98.30;;;;;;4161889;28;20396;-65
2021/08/29 02:19:36;;;;;;;5.45;0.95;;;30.90;98.10;;;;;;4162470;28;20049;-65
2021/08/29 02:21:44;;;;;;;1.55;0.77;;;31.10;98.10;;;;;;4151280;28;20054;-65
2021/08/29 02:23:48;;;;;;;2.60;1.00;;;31.20;97.70;;;;;;4141095;28;20089;-66
2021/08/29 02:25:53;;;;;;;2.85;1.10;;;31.20;97.30;;;;;;4150266;28;20088;-65
2021/08/29 02:27:58;;;;;;;1.15;0.95;;;31.10;97.50;;;;;;4150526;28;20412;-65
2021/08/29 02:30:04;;;;;;;1.70;1.08;;;31.20;97.20;;;;;;4152116;28;20049;-65
2021/08/29 02:32:13;;;;;;;1.50;1.15;;;31.30;96.80;;;;;;4135989;28;20046;-65
2021/08/29 02:34:20;;;;;;;2.10;0.82;;;31.40;96.60;;;;;;4150382;28;20484;-66
2021/08/29 02:36:29;;;;;;;1.58;1.10;;;31.40;96.50;;;;;;4152050;28;20539;-66
2021/08/29 02:38:34;;;;;;;1.35;0.80;;;31.50;96.60;;;;;;4166418;28;20523;-66
2021/08/29 02:40:42;;;;;;;1.25;0.85;;;31.60;96.30;;;;;;4168468;28;20410;-66
2021/08/29 02:42:47;;;;;;;2.30;1.10;;;31.50;96.40;;;;;;4149207;28;20045;-65
2021/08/29 02:44:51;;;;;;;1.92;0.90;;;31.60;96.20;;;;;;4147931;28;20045;-65
2021/08/29 02:46:56;;;;;;;1.73;0.95;;;31.60;96.30;;;;;;4153034;28;20509;-64
2021/08/29 02:49:00;;;;;;;1.42;1.00;;;31.50;96.40;;;;;;4084266;28;60455;-66
2021/08/29 02:51:06;;;;;;;3.97;1.00;;;31.50;96.30;;;;;;4144927;28;20046;-66
2021/08/29 02:53:10;;;;;;;1.52;0.98;;;31.40;96.40;;;;;;4145501;28;20523;-66
2021/08/29 02:55:15;;;;;;;3.13;1.40;;;31.40;96.00;;;;;;4163298;28;20065;-66
2021/08/29 02:57:20;;;;;;;2.45;1.15;;;31.40;96.00;;;;;;4147783;28;20037;-66
2021/08/29 02:59:44;;;;;;;1.40;0.70;;;31.50;95.50;;;;;;4162377;28;20046;-66
2021/08/29 03:01:49;;;;;;;2.72;1.00;;;31.60;95.30;;;;;;4152108;28;20454;-66
2021/08/29 03:04:06;;;;;;;2.10;0.95;;;31.80;95.10;;;;;;4151788;28;20128;-66
2021/08/29 03:06:13;;;;;;;2.65;0.93;;;31.90;94.70;;;;;;4161093;28;20060;-66
2021/08/29 03:08:18;;;;;;;1.48;0.80;;;31.90;94.30;;;;;;4145220;28;20057;-66
2021/08/29 03:10:24;;;;;;;1.90;0.90;;;31.80;94.40;;;;;;4144713;28;20046;-66
2021/08/29 03:12:29;;;;;;;1.70;1.00;;;31.80;94.40;;;;;;4162910;28;20144;-66
2021/08/29 03:14:46;;;;;;;2.38;0.80;;;31.80;94.50;;;;;;4162103;28;20033;-66
2021/08/29 03:16:54;;;;;;;1.80;0.70;;;31.90;94.20;;;;;;4145321;28;20046;-66
2021/08/29 03:19:11;;;;;;;1.02;0.70;;;31.90;94.30;;;;;;4147888;28;20046;-66
2021/08/29 03:21:23;;;;;;;1.23;0.65;;;31.80;94.30;;;;;;4157910;28;20049;-66
2021/08/29 03:23:28;;;;;;;1.98;0.70;;;31.80;94.30;;;;;;4172309;28;20033;-66
2021/08/29 03:25:33;;;;;;;1.45;0.90;;;31.90;94.10;;;;;;4162949;28;20056;-66
2021/08/29 03:27:38;;;;;;;1.73;0.90;;;31.90;94.10;;;;;;4145389;28;20061;-66
2021/08/29 03:29:42;;;;;;;1.48;0.80;;;31.90;93.90;;;;;;4163219;28;20736;-66
2021/08/29 03:31:48;;;;;;;1.20;0.75;;;31.90;93.60;;;;;;4170531;28;20048;-66
2021/08/29 03:33:54;;;;;;;2.53;0.80;;;31.90;93.60;;;;;;4168388;28;20369;-66
2021/08/29 03:35:58;;;;;;;1.15;0.85;;;31.80;93.70;;;;;;4161419;28;20052;-66
2021/08/29 03:38:03;;;;;;;1.90;0.82;;;31.80;93.80;;;;;;4154547;28;20041;-66
2021/08/29 03:40:08;;;;;;;2.72;0.93;;;32.10;93.60;;;;;;4154329;28;20046;-66
2021/08/29 03:42:14;;;;;;;3.40;1.58;;;32.10;93.40;;;;;;4149712;28;20116;-66
2021/08/29 03:44:19;;;;;;;1.90;1.10;;;32.20;93.00;;;;;;4145022;28;20282;-66
2021/08/29 03:46:24;;;;;;;2.08;1.10;;;32.30;92.90;;;;;;4145136;28;20045;-66
2021/08/29 03:48:33;;;;;;;3.47;1.17;;;32.40;92.50;;;;;;4144802;28;20129;-65
2021/08/29 03:50:38;;;;;;;2.97;1.17;;;32.50;92.50;;;;;;4156146;28;20049;-67
2021/08/29 03:52:43;;;;;;;1.48;0.85;;;32.60;92.30;;;;;;4147131;28;20551;-65
2021/08/29 03:54:58;;;;;;;1.45;0.80;;;32.60;91.90;;;;;;4161252;28;20053;-65
2021/08/29 03:57:04;;;;;;;1.48;0.98;;;32.70;91.70;;;;;;4144948;28;20477;-65
2021/08/29 03:59:09;;;;;;;1.52;0.80;;;32.70;91.70;;;;;;4167342;28;20045;-67
2021/08/29 04:01:14;;;;;;;2.35;1.02;;;32.70;91.00;;;;;;4164697;28;20045;-67
2021/08/29 04:03:19;;;;;;;1.90;0.90;;;32.60;91.60;;;;;;4161459;28;20041;-66
2021/08/29 04:05:27;;;;;;;1.73;1.02;;;32.70;91.70;;;;;;4169682;28;20068;-66
2021/08/29 04:07:33;;;;;;;2.90;0.90;;;32.80;91.30;;;;;;4156631;28;20514;-65
2021/08/29 04:09:44;;;;;;;1.25;0.70;;;32.80;91.30;;;;;;4162959;28;20116;-65
2021/08/29 04:11:49;;;;;;;3.45;0.88;;;32.80;91.00;;;;;;4151004;28;20500;-65
2021/08/29 04:14:00;;;;;;;1.55;0.85;;;32.80;90.50;;;;;;4151204;28;20037;-65
2021/08/29 04:16:06;;;;;;;2.65;0.95;;;32.80;90.30;;;;;;4174449;28;20055;-65
2021/08/29 04:18:13;;;;;;;2.90;1.10;;;32.80;90.50;;;;;;4154392;28;20496;-65
2021/08/29 04:20:18;;;;;;;1.45;0.80;;;32.90;90.30;;;;;;4146816;28;20057;-65
2021/08/29 04:22:23;;;;;;;2.15;0.68;;;32.90;89.60;;;;;;4152658;28;20041;-65
2021/08/29 04:24:27;;;;;;;3.13;0.77;;;33.00;90.00;;;;;;4150850;28;20046;-66
2021/08/29 04:26:32;;;;;;;2.55;0.80;;;33.10;89.90;;;;;;4164015;28;20053;-66
2021/08/29 04:28:36;;;;;;;1.70;0.85;;;33.20;90.20;;;;;;4166146;28;20099;-66
2021/08/29 04:30:41;;;;;;;1.40;0.70;;;33.20;89.30;;;;;;4156216;28;20101;-66
2021/08/29 04:32:48;;;;;;;1.13;0.90;;;33.30;88.60;;;;;;4149611;28;20419;-66
2021/08/29 04:35:10;;;;;;;1.20;0.65;;;33.30;88.50;;;;;;4156363;28;20097;-66
2021/08/29 04:37:17;;;;;;;1.48;0.82;;;33.30;88.60;;;;;;4154005;28;20457;-65
2021/08/29 04:39:29;;;;;;;1.55;0.70;;;33.20;88.20;;;;;;4169132;28;20171;-66
2021/08/29 04:41:36;;;;;;;2.33;0.77;;;33.10;88.70;;;;;;4168359;28;20044;-66
2021/08/29 04:43:41;;;;;;;1.35;0.65;;;33.20;88.70;;;;;;4168131;28;20582;-65
2021/08/29 04:45:46;;;;;;;1.58;0.70;;;33.20;88.50;;;;;;4147941;28;20053;-66
2021/08/29 04:47:52;;;;;;;0.68;0.50;;;33.40;87.70;;;;;;4147698;28;20224;-66
2021/08/29 04:49:57;;;;;;;2.95;1.20;;;33.50;88.00;;;;;;4133592;28;20081;-65
2021/08/29 04:52:02;;;;;;;1.60;0.80;;;33.60;87.70;;;;;;4153886;28;20527;-65
2021/08/29 04:54:06;;;;;;;1.52;0.80;;;33.60;87.50;;;;;;4149476;28;20299;-66
2021/08/29 04:56:12;;;;;;;1.90;0.70;;;33.70;86.70;;;;;;4147593;28;20050;-66
2021/08/29 04:58:17;;;;;;;1.58;0.57;;;33.70;84.10;;;;;;4164097;28;20535;-67
2021/08/29 05:00:22;;;;;;;1.20;0.70;;;33.80;84.50;;;;;;4150479;28;20127;-67
2021/08/29 05:02:31;;;;;;;1.13;0.57;;;33.80;84.80;;;;;;4152492;28;20135;-66
2021/08/29 05:04:37;;;;;;;0.65;0.45;;;33.80;84.50;;;;;;4161088;28;20455;-66
2021/08/29 05:06:43;;;;;;;3.22;0.70;;;33.80;84.10;;;;;;4147620;28;20524;-68
2021/08/29 05:08:50;;;;;;;1.33;0.70;;;33.90;83.90;;;;;;4147791;28;20492;-66
2021/08/29 05:10:54;;;;;;;4.07;1.48;;;33.90;84.10;;;;;;4165300;28;20064;-67
2021/08/29 05:12:59;;;;;;;2.33;0.80;;;33.90;84.50;;;;;;4143223;28;20044;-69
2021/08/29 05:15:04;;;;;;;2.95;0.82;;;33.90;84.30;;;;;;4163093;28;20051;-67
2021/08/29 05:17:09;;;;;;;2.20;1.00;;;33.90;84.50;;;;;;4163569;28;20120;-69
2021/08/29 05:19:23;;;;;;;1.70;0.80;;;34.00;84.30;;;;;;4145802;28;20539;-67
2021/08/29 05:21:39;;;;;;;2.22;0.63;;;33.90;83.30;;;;;;4138173;28;20053;-67
2021/08/29 05:23:55;;;;;;;2.42;0.93;;;33.90;84.20;;;;;;4145064;28;20041;-67
2021/08/29 05:26:14;;;;;;;3.00;1.23;;;33.90;84.70;;;;;;4128808;28;20084;-68
2021/08/29 05:28:19;;;;;;;2.13;1.15;;;34.00;84.70;;;;;;4146255;28;20069;-67
2021/08/29 05:30:26;;;;;;;1.40;0.68;;;34.00;84.50;;;;;;4128585;28;20096;-67
2021/08/29 05:32:31;;;;;;;0.90;0.80;;;34.10;83.70;;;;;;4124940;28;20413;-69
2021/08/29 05:34:35;;;;;;;2.75;0.90;;;34.20;84.00;;;;;;4120267;28;20479;-69
2021/08/29 05:36:40;;;;;;;1.25;0.70;;;34.20;82.90;;;;;;4129321;28;20437;-68
2021/08/29 05:38:47;;;;;;;1.10;0.82;;;34.20;81.90;;;;;;4147157;28;20140;-67
2021/08/29 05:41:06;;;;;;;1.38;0.80;;;34.20;82.50;;;;;;4129350;28;20406;-68
2021/08/29 05:43:20;;;;;;;1.33;0.73;;;34.30;82.50;;;;;;4150017;28;20104;-67
2021/08/29 05:45:26;;;;;;;2.65;0.88;;;34.30;81.90;;;;;;4131149;28;20132;-68
2021/08/29 05:47:30;;;;;;;1.27;0.70;;;34.30;82.30;;;;;;4124050;28;20153;-67
2021/08/29 05:49:35;;;;;;;1.17;0.55;;;34.30;82.20;;;;;;4149459;28;20045;-68
2021/08/29 05:51:39;;;;;;;0.80;0.50;;;34.30;80.30;;;;;;4136347;28;20395;-67
2021/08/29 05:53:45;;;;;;;0.93;0.50;;;34.10;80.50;;;;;;4130636;28;20675;-67
2021/08/29 05:55:50;;;;;;;1.40;0.70;;;34.20;80.80;;;;;;4132836;28;20438;-67
2021/08/29 05:57:54;;;;;;;1.63;0.80;;;34.30;80.90;;;;;;4127253;28;20057;-67
2021/08/29 05:59:59;;;;;;;2.03;0.75;;;34.30;80.40;;;;;;4152601;28;20037;-67
2021/08/29 06:02:04;;;;;;;1.48;0.70;;;34.40;80.10;;;;;;4136694;28;20053;-67
2021/08/29 06:04:08;;;;;;;0.98;0.63;;;34.60;80.10;;;;;;4133157;28;20046;-65
2021/08/29 06:06:20;;;;;;;0.63;0.50;;;34.70;80.30;;;;;;4152675;28;20056;-68
2021/08/29 06:08:26;;;;;;;0.73;0.50;;;34.70;80.10;;;;;;4136560;28;20040;-66
2021/08/29 06:10:32;;;;;;;1.23;0.60;;;34.80;79.70;;;;;;4151603;28;20046;-66
2021/08/29 06:12:36;;;;;;;1.08;0.55;;;34.80;78.90;;;;;;4133425;28;20572;-66
2021/08/29 06:14:41;;;;;;;0.52;0.50;;;34.80;78.90;;;;;;4135688;28;20085;-66
2021/08/29 06:16:47;;;;;;;1.70;0.52;;;34.80;78.90;;;;;;4135072;28;20038;-66
2021/08/29 06:19:00;;;;;;;1.73;0.47;;;34.80;78.80;;;;;;4129871;28;20046;-67
2021/08/29 06:21:05;;;;;;;1.33;0.65;;;34.80;78.80;;;;;;4140702;28;20105;-67
2021/08/29 06:23:11;;;;;;;0.82;0.45;;;34.90;78.10;;;;;;4144464;28;20536;-66
2021/08/29 06:25:35;;;;;;;0.85;0.52;;;34.90;77.60;;;;;;4159115;28;20356;-66
2021/08/29 06:27:52;;;;;;;1.65;0.50;;;35.00;77.20;;;;;;4160611;28;20045;-66
2021/08/29 06:30:16;;;;;;;1.13;0.50;;;35.10;77.80;;;;;;4160879;28;20554;-68
2021/08/29 06:32:33;;;;;;;0.95;0.57;;;35.10;77.80;;;;;;4159107;28;20096;-67
2021/08/29 06:34:42;;;;;;;1.60;0.82;;;35.20;76.20;;;;;;4144859;28;20053;-67
2021/08/29 06:37:03;;;;;;;0.93;0.68;;;35.20;76.50;;;;;;4142641;28;20041;-67
2021/08/29 06:39:08;;;;;;;0.73;0.50;;;35.30;75.70;;;;;;4142908;28;20080;-67
2021/08/29 06:41:12;;;;;;;0.73;0.65;;;35.30;74.90;;;;;;4142696;28;20052;-67
2021/08/29 06:43:18;;;;;;;0.82;0.57;;;35.30;74.40;;;;;;4144629;28;20570;-67
2021/08/29 06:45:28;;;;;;;2.00;0.63;;;35.30;74.20;;;;;;4160296;28;20053;-67
2021/08/29 06:47:45;;;;;;;1.38;0.57;;;35.30;74.80;;;;;;4160109;28;20116;-67
2021/08/29 06:50:02;;;;;;;0.73;0.35;;;35.40;74.70;;;;;;4160910;28;20488;-66
2021/08/29 06:52:19;;;;;;;1.10;0.60;;;35.40;74.70;;;;;;4159404;28;20468;-66
2021/08/29 06:54:43;;;;;;;0.88;0.70;;;35.50;75.30;;;;;;4162500;28;20048;-66
2021/08/29 06:57:00;;;;;;;1.52;0.80;;;35.40;75.00;;;;;;4167755;28;20080;-67
2021/08/29 06:59:05;;;;;;;1.08;0.80;;;35.50;75.10;;;;;;4149604;28;20133;-67
2021/08/29 07:01:10;;;;;;;1.67;0.65;;;35.60;75.10;;;;;;4148219;28;20045;-68
2021/08/29 07:03:15;;;;;;;0.60;0.47;;;35.60;74.30;;;;;;4148525;28;20048;-67
2021/08/29 07:05:19;;;;;;;1.05;0.70;;;35.60;72.60;;;;;;4166157;28;20554;-67
2021/08/29 07:07:36;;;;;;;3.55;0.70;;;35.60;73.50;;;;;;4163590;28;20582;-67
2021/08/29 07:09:45;;;;;;;1.80;0.80;;;35.60;74.50;;;;;;4151357;28;20495;-67
2021/08/29 07:11:50;;;;;;;1.65;0.80;;;35.60;73.00;;;;;;4167976;28;20156;-67
2021/08/29 07:14:14;;;;;;;1.08;0.55;;;35.60;74.20;;;;;;4167096;28;20474;-67
2021/08/29 07:16:22;;;;;;;1.50;0.60;;;35.70;73.70;;;;;;4150302;28;20124;-66
2021/08/29 07:18:26;;;;;;;0.70;0.50;;;35.70;73.80;;;;;;4149164;28;20069;-66
2021/08/29 07:20:43;;;;;;;2.50;0.60;;;35.70;73.80;;;;;;4167527;28;20049;-67
2021/08/29 07:23:07;;;;;;;0.90;0.63;;;35.70;74.10;;;;;;4168649;28;20423;-67
2021/08/29 07:25:24;;;;;;;1.77;0.50;;;35.70;73.20;;;;;;4167235;28;20504;-68
2021/08/29 07:27:41;;;;;;;0.57;0.38;;;35.80;73.00;;;;;;4167581;28;20049;-67
2021/08/29 07:29:59;;;;;;;0.70;0.30;;;35.80;71.60;;;;;;4167760;28;20103;-67
2021/08/29 07:32:16;;;;;;;0.57;0.50;;;35.80;70.50;;;;;;4167587;28;20048;-67
2021/08/29 07:34:21;;;;;;;1.58;0.50;;;35.80;71.70;;;;;;4150415;28;20112;-67
2021/08/29 07:36:45;;;;;;;1.42;0.50;;;35.90;72.00;;;;;;4165265;28;20391;-67
2021/08/29 07:38:49;;;;;;;0.65;0.45;;;35.90;71.60;;;;;;4154891;28;20057;-67
2021/08/29 07:40:54;;;;;;;1.98;0.43;;;35.90;71.40;;;;;;4171042;28;20053;-67
2021/08/29 07:42:58;;;;;;;1.17;0.57;;;35.90;70.00;;;;;;4137209;28;20045;-67
2021/08/29 07:45:03;;;;;;;0.80;0.50;;;35.80;70.40;;;;;;4173742;28;20419;-68
2021/08/29 07:47:08;;;;;;;1.10;0.55;;;35.80;71.00;;;;;;4151240;28;20145;-67
2021/08/29 07:49:13;;;;;;;0.40;0.30;;;35.90;70.90;;;;;;4152420;28;20471;-67
2021/08/29 07:51:18;;;;;;;1.10;0.40;;;35.90;70.50;;;;;;4169702;28;20316;-67
2021/08/29 07:53:41;;;;;;;0.95;0.50;;;35.90;69.70;;;;;;4172689;28;20512;-67
2021/08/29 07:55:58;;;;;;;1.10;0.65;;;35.80;69.60;;;;;;4167589;28;20124;-67
2021/08/29 07:58:07;;;;;;;1.98;0.68;;;35.80;69.60;;;;;;4151434;28;20161;-67
2021/08/29 08:00:12;;;;;;;0.60;0.52;;;35.90;69.50;;;;;;4159498;28;20041;-67
2021/08/29 08:02:22;;;;;;;1.20;0.50;;;35.90;69.60;;;;;;4155867;28;20045;-67
2021/08/29 08:04:38;;;;;;;1.58;0.30;;;35.90;69.80;;;;;;4161669;28;20049;-66
2021/08/29 08:06:55;;;;;;;0.50;0.40;;;35.90;69.00;;;;;;4165492;28;20045;-66
2021/08/29 08:09:12;;;;;;;0.55;0.32;;;35.90;69.00;;;;;;4150968;28;20133;-66
2021/08/29 08:11:29;;;;;;;0.50;0.35;;;35.90;68.80;;;;;;4171984;28;20072;-66
2021/08/29 08:13:33;;;;;;;0.40;0.20;;;35.90;68.90;;;;;;4154110;28;20459;-67
2021/08/29 08:15:38;;;;;;;2.13;1.20;;;35.90;67.90;;;;;;4171182;28;20168;-68
2021/08/29 08:17:43;;;;;;;11.23;6.97;;;35.80;68.10;;;;;;4151491;28;20189;-68
2021/08/29 08:19:47;;;;;;;5.18;3.72;;;35.90;68.30;;;;;;4149063;28;20390;-68
2021/08/29 08:21:53;;;;;;;5.90;3.38;;;35.90;68.30;;;;;;4172858;28;20099;-67
2021/08/29 08:24:10;;;;;;;2.33;1.42;;;35.90;68.70;;;;;;4171474;28;20519;-67
2021/08/29 08:26:18;;;;;;;1.27;0.80;;;36.00;68.70;;;;;;4169414;28;20543;-67
2021/08/29 08:28:34;;;;;;;1.50;0.60;;;35.90;67.70;;;;;;4165525;28;20041;-68
2021/08/29 08:30:51;;;;;;;0.73;0.30;;;36.00;67.60;;;;;;4170017;28;20068;-67
2021/08/29 08:33:08;;;;;;;0.55;0.40;;;35.90;67.60;;;;;;4165053;28;20057;-68
2021/08/29 08:35:25;;;;;;;0.60;0.20;;;35.90;66.10;;;;;;4163173;28;20037;-67
2021/08/29 08:37:41;;;;;;;1.30;0.32;;;35.90;67.10;;;;;;4160438;28;20045;-68
2021/08/29 08:39:53;;;;;;;0.82;0.35;;;35.90;66.80;;;;;;4164748;28;20102;-68
2021/08/29 08:42:05;;;;;;;0.52;0.40;;;35.80;66.70;;;;;;4141810;28;20100;-68
2021/08/29 08:44:22;;;;;;;0.88;0.47;;;35.80;67.40;;;;;;4160879;28;20037;-68
2021/08/29 08:46:39;;;;;;;1.48;0.50;;;35.80;67.30;;;;;;4166367;28;20070;-66
2021/08/29 08:48:56;;;;;;;0.57;0.40;;;35.80;67.40;;;;;;4162379;28;20049;-67
2021/08/29 08:51:12;;;;;;;1.25;0.47;;;35.80;67.10;;;;;;4163731;28;20148;-67
2021/08/29 08:53:37;;;;;;;1.73;0.50;;;35.90;67.20;;;;;;4164462;28;20546;-66
2021/08/29 08:55:54;;;;;;;0.82;0.43;;;35.90;66.80;;;;;;4167414;28;20037;-65
2021/08/29 08:58:14;;;;;;;1.00;0.50;;;35.90;67.40;;;;;;4165726;28;20380;-66
2021/08/29 09:00:40;;;;;;;0.65;0.50;;;35.80;66.10;;;;;;4166779;28;20410;-65
2021/08/29 09:02:57;;;;;;;0.60;0.35;;;35.80;66.80;;;;;;4160425;28;20073;-66
2021/08/29 09:05:17;;;;;;;0.60;0.40;;;35.80;66.80;;;;;;4138026;28;20054;-66
2021/08/29 09:07:21;;;;;;;0.40;0.30;;;35.80;67.00;;;;;;4144373;28;20041;-67
2021/08/29 09:09:25;;;;;;;0.77;0.45;;;35.80;67.00;;;;;;4163639;28;20033;-67
2021/08/29 09:11:34;;;;;;;0.73;0.43;;;35.70;67.00;;;;;;4143266;28;20141;-68
2021/08/29 09:13:58;;;;;;;0.77;0.47;;;35.70;66.40;;;;;;4160015;28;20103;-68
2021/08/29 09:16:14;;;;;;;0.95;0.40;;;35.70;66.70;;;;;;4161658;28;20148;-68
2021/08/29 09:18:21;;;;;;;0.85;0.52;;;35.70;66.60;;;;;;4162004;28;20052;-68
2021/08/29 09:20:32;;;;;;;1.05;0.60;;;35.70;67.20;;;;;;4147722;28;20057;-67
2021/08/29 09:22:41;;;;;;;0.68;0.40;;;35.70;67.50;;;;;;4143437;28;20049;-68
2021/08/29 09:24:57;;;;;;;0.52;0.40;;;35.70;68.10;;;;;;4161436;28;20048;-68
2021/08/29 09:27:23;;;;;;;0.57;0.43;;;35.70;68.10;;;;;;4159502;28;20045;-68
2021/08/29 09:29:47;;;;;;;1.33;0.55;;;35.70;68.10;;;;;;4145117;28;20497;-67
2021/08/29 09:31:54;;;;;;;1.08;0.50;;;35.70;67.60;;;;;;4145289;28;20089;-68
2021/08/29 09:34:05;;;;;;;1.42;0.50;;;35.70;67.90;;;;;;4142837;28;20049;-67
2021/08/29 09:36:10;;;;;;;0.73;0.55;;;35.70;68.10;;;;;;4143030;28;20107;-67
2021/08/29 09:38:42;;;;;;;0.45;0.32;;;35.70;68.20;;;;;;4161141;28;20593;-67
2021/08/29 09:40:50;;;;;;;2.13;1.20;;;35.80;68.40;;;;;;4141502;28;20786;-66
2021/08/29 09:43:08;;;;;;;15.98;11.32;;;35.70;67.60;;;;;;4139807;28;20042;-67
2021/08/29 09:45:23;;;;;;;14.90;11.75;;;35.70;68.00;;;;;;4141375;28;20072;-67
2021/08/29 09:47:39;;;;;;;10.68;8.35;;;35.80;68.00;;;;;;4161402;28;20037;-67
2021/08/29 09:49:59;;;;;;;4.82;3.75;;;35.70;67.60;;;;;;4142932;28;20048;-67
2021/08/29 09:52:24;;;;;;;3.42;2.60;;;35.60;67.60;;;;;;4134453;28;20113;-68
2021/08/29 09:54:49;;;;;;;2.95;1.30;;;35.50;67.50;;;;;;4157082;28;20132;-68
2021/08/29 09:57:13;;;;;;;3.58;1.38;;;35.60;66.60;;;;;;4158132;28;20068;-67
2021/08/29 09:59:49;;;;;;;1.50;1.00;;;35.60;67.00;;;;;;4158470;28;20373;-67
2021/08/29 10:02:26;;;;;;;0.98;0.70;;;35.50;67.50;;;;;;4156963;28;20061;-67
2021/08/29 10:04:34;;;;;;;1.42;0.90;;;35.40;67.60;;;;;;4155255;28;20577;-67
2021/08/29 10:06:41;;;;;;;6.90;2.85;;;35.40;67.80;;;;;;4145385;28;20045;-67
2021/08/29 10:08:48;;;;;;;132.23;17.65;;;35.50;68.30;;;;;;4146237;28;20108;-67
2021/08/29 10:11:05;;;;;;;74.47;10.30;;;35.50;68.20;;;;;;4145853;28;20570;-67
2021/08/29 10:13:09;;;;;;;60.92;10.32;;;35.50;68.40;;;;;;4146194;28;20408;-68
2021/08/29 10:15:18;;;;;;;25.48;4.50;;;35.50;68.60;;;;;;4144803;28;20400;-67
2021/08/29 10:17:34;;;;;;;39.75;4.38;;;35.50;69.00;;;;;;4166102;28;20048;-66
2021/08/29 10:19:51;;;;;;;20.27;2.78;;;35.50;69.00;;;;;;4168424;28;20263;-66
2021/08/29 10:22:08;;;;;;;269.00;56.40;;;35.50;69.20;;;;;;4168128;28;20041;-67
2021/08/29 10:24:14;;;;;;;140.30;31.42;;;35.50;69.60;;;;;;4170593;28;20045;-66
2021/08/29 10:26:20;;;;;;;29.23;7.03;;;35.50;69.70;;;;;;4153994;28;20041;-66
2021/08/29 10:28:39;;;;;;;27.33;5.50;;;35.40;69.30;;;;;;4167145;28;20048;-67
2021/08/29 10:31:04;;;;;;;19.38;4.47;;;35.30;69.50;;;;;;4167982;28;20045;-67
2021/08/29 10:33:21;;;;;;;6.00;2.08;;;35.20;69.50;;;;;;4166775;28;20411;-67
2021/08/29 10:35:31;;;;;;;3.70;1.48;;;34.80;71.30;;;;;;4151482;28;20038;-67
2021/08/29 10:37:55;;;;;;;2.25;1.30;;;34.70;72.60;;;;;;4170583;28;20045;-66
2021/08/29 10:40:13;;;;;;;2.25;1.10;;;33.90;76.00;;;;;;4167526;28;20045;-67
2021/08/29 10:42:31;;;;;;;2.90;1.40;;;33.70;77.20;;;;;;4152011;28;20569;-66
2021/08/29 10:44:48;;;;;;;3.70;1.33;;;33.20;79.20;;;;;;4167441;28;20041;-67
2021/08/29 10:47:12;;;;;;;2.33;1.20;;;33.30;79.60;;;;;;4171096;28;20881;-67
2021/08/29 10:49:29;;;;;;;3.35;1.25;;;33.50;79.20;;;;;;4159458;28;20046;-67
2021/08/29 10:51:34;;;;;;;6.25;2.72;;;33.60;79.80;;;;;;4145304;28;20297;-67
2021/08/29 10:53:49;;;;;;;5.15;2.83;;;33.40;80.70;;;;;;4141374;28;20156;-66
2021/08/29 10:56:33;;;;;;;6.32;3.40;;;33.50;81.30;;;;;;4152948;28;20049;-67
2021/08/29 10:58:48;;;;;;;5.05;2.63;;;33.20;82.40;;;;;;4155616;28;20069;-67
2021/08/29 11:00:52;;;;;;;5.15;2.08;;;33.30;82.10;;;;;;4144381;28;20034;-66
2021/08/29 11:03:27;;;;;;;4.25;1.67;;;33.30;82.10;;;;;;4161758;28;20033;-67
2021/08/29 11:05:53;;;;;;;4.00;1.90;;;33.30;82.40;;;;;;4163157;28;20073;-67
2021/08/29 11:08:20;;;;;;;3.75;2.22;;;33.10;83.10;;;;;;4163182;28;20060;-67
2021/08/29 11:10:43;;;;;;;4.03;2.17;;;33.10;82.90;;;;;;4151536;28;20757;-68
2021/08/29 11:12:49;;;;;;;3.17;2.08;;;33.10;83.30;;;;;;4147567;28;20046;-68
2021/08/29 11:14:54;;;;;;;5.43;2.10;;;32.90;83.40;;;;;;4148606;28;20520;-67
2021/08/29 11:17:14;;;;;;;3.05;1.75;;;32.90;84.10;;;;;;4144691;28;20037;-67
2021/08/29 11:19:41;;;;;;;4.82;2.08;;;32.70;84.70;;;;;;4165651;28;20053;-67